sensor_id;sensor_type;location;lat;lon;timestamp;P1;durP1;ratioP1;P2;durP2;ratioP2
19213;SDS011;9741;51.020;5.304;2023-08-24T00:01:47;2.60;;;1.73;;
19213;SDS011;9741;51.020;5.304;2023-08-24T00:04:17;2.20;;;1.98;;
19213;SDS011;9741;51.020;5.304;2023-08-24T00:06:48;7.68;;;2.38;;
19213;SDS011;9741;51.020;5.304;2023-08-24T00:09:22;1.65;;;1.55;;
19213;SDS011;9741;51.020;5.304;2023-08-24T00:11:53;2.25;;;1.80;;
19213;SDS011;9741;51.020;5.304;2023-08-24T00:14:34;3.10;;;2.38;;
19213;SDS011;9741;51.020;5.304;2023-08-24T00:17:03;1.90;;;1.75;;
19213;SDS011;9741;51.020;5.304;2023-08-24T00:19:35;3.20;;;1.83;;
19213;SDS011;9741;51.020;5.304;2023-08-24T00:22:05;1.45;;;1.35;;
19213;SDS011;9741;51.020;5.304;2023-08-24T00:27:21;2.80;;;2.33;;
19213;SDS011;9741;51.020;5.304;2023-08-24T00:29:53;2.75;;;2.55;;
19213;SDS011;9741;51.020;5.304;2023-08-24T00:32:24;1.85;;;1.60;;
19213;SDS011;9741;51.020;5.304;2023-08-24T00:34:54;1.63;;;1.52;;
19213;SDS011;9741;51.020;5.304;2023-08-24T00:37:22;4.22;;;2.45;;
19213;SDS011;9741;51.020;5.304;2023-08-24T00:39:55;7.88;;;2.20;;
19213;SDS011;9741;51.020;5.304;2023-08-24T00:42:25;8.98;;;2.13;;
19213;SDS011;9741;51.020;5.304;2023-08-24T00:44:56;2.92;;;1.88;;
19213;SDS011;9741;51.020;5.304;2023-08-24T00:47:26;3.55;;;2.35;;
19213;SDS011;9741;51.020;5.304;2023-08-24T00:50:07;3.70;;;2.25;;
19213;SDS011;9741;51.020;5.304;2023-08-24T00:52:44;6.40;;;2.00;;
19213;SDS011;9741;51.020;5.304;2023-08-24T00:55:18;4.60;;;2.17;;
19213;SDS011;9741;51.020;5.304;2023-08-24T00:57:48;2.63;;;1.95;;
19213;SDS011;9741;51.020;5.304;2023-08-24T01:00:25;2.08;;;1.73;;
19213;SDS011;9741;51.020;5.304;2023-08-24T01:03:04;1.92;;;1.73;;
19213;SDS011;9741;51.020;5.304;2023-08-24T01:05:32;4.35;;;2.38;;
19213;SDS011;9741;51.020;5.304;2023-08-24T01:08:07;2.90;;;2.22;;
19213;SDS011;9741;51.020;5.304;2023-08-24T01:10:40;1.98;;;1.75;;
19213;SDS011;9741;51.020;5.304;2023-08-24T01:13:17;3.20;;;2.50;;
19213;SDS011;9741;51.020;5.304;2023-08-24T01:16:00;4.28;;;1.83;;
19213;SDS011;9741;51.020;5.304;2023-08-24T01:18:35;6.78;;;1.77;;
19213;SDS011;9741;51.020;5.304;2023-08-24T01:21:09;2.45;;;1.98;;
19213;SDS011;9741;51.020;5.304;2023-08-24T01:23:53;1.58;;;1.48;;
19213;SDS011;9741;51.020;5.304;2023-08-24T01:26:37;3.75;;;2.03;;
19213;SDS011;9741;51.020;5.304;2023-08-24T01:29:09;4.10;;;2.15;;
19213;SDS011;9741;51.020;5.304;2023-08-24T01:31:40;1.88;;;1.48;;
19213;SDS011;9741;51.020;5.304;2023-08-24T01:34:11;3.22;;;1.90;;
19213;SDS011;9741;51.020;5.304;2023-08-24T01:36:38;3.83;;;1.98;;
19213;SDS011;9741;51.020;5.304;2023-08-24T01:39:11;2.15;;;1.65;;
19213;SDS011;9741;51.020;5.304;2023-08-24T01:41:52;1.70;;;1.60;;
19213;SDS011;9741;51.020;5.304;2023-08-24T01:44:27;1.27;;;1.17;;
19213;SDS011;9741;51.020;5.304;2023-08-24T01:47:05;2.03;;;1.88;;
19213;SDS011;9741;51.020;5.304;2023-08-24T01:49:37;1.83;;;1.63;;
19213;SDS011;9741;51.020;5.304;2023-08-24T01:52:07;3.15;;;2.10;;
19213;SDS011;9741;51.020;5.304;2023-08-24T01:54:37;7.50;;;1.80;;
19213;SDS011;9741;51.020;5.304;2023-08-24T01:57:09;2.83;;;1.80;;
19213;SDS011;9741;51.020;5.304;2023-08-24T01:59:39;2.75;;;2.40;;
19213;SDS011;9741;51.020;5.304;2023-08-24T02:02:13;1.60;;;1.27;;
19213;SDS011;9741;51.020;5.304;2023-08-24T02:04:50;3.17;;;2.10;;
19213;SDS011;9741;51.020;5.304;2023-08-24T02:07:20;1.77;;;1.38;;
19213;SDS011;9741;51.020;5.304;2023-08-24T02:09:51;1.52;;;1.27;;
19213;SDS011;9741;51.020;5.304;2023-08-24T02:12:23;5.20;;;2.20;;
19213;SDS011;9741;51.020;5.304;2023-08-24T02:14:50;1.80;;;1.63;;
19213;SDS011;9741;51.020;5.304;2023-08-24T02:17:27;4.38;;;1.63;;
19213;SDS011;9741;51.020;5.304;2023-08-24T02:20:10;1.45;;;1.30;;
19213;SDS011;9741;51.020;5.304;2023-08-24T02:22:40;1.75;;;1.13;;
19213;SDS011;9741;51.020;5.304;2023-08-24T02:25:11;1.73;;;1.63;;
19213;SDS011;9741;51.020;5.304;2023-08-24T02:27:48;10.25;;;2.20;;
19213;SDS011;9741;51.020;5.304;2023-08-24T02:30:19;2.38;;;1.42;;
19213;SDS011;9741;51.020;5.304;2023-08-24T02:32:51;2.38;;;2.17;;
19213;SDS011;9741;51.020;5.304;2023-08-24T02:35:27;1.75;;;1.13;;
19213;SDS011;9741;51.020;5.304;2023-08-24T02:38:03;1.95;;;1.38;;
19213;SDS011;9741;51.020;5.304;2023-08-24T02:40:32;1.85;;;1.30;;
19213;SDS011;9741;51.020;5.304;2023-08-24T02:43:02;1.70;;;1.20;;
19213;SDS011;9741;51.020;5.304;2023-08-24T02:45:33;6.90;;;1.25;;
19213;SDS011;9741;51.020;5.304;2023-08-24T02:48:01;11.85;;;1.77;;
19213;SDS011;9741;51.020;5.304;2023-08-24T02:50:30;1.42;;;1.33;;
19213;SDS011;9741;51.020;5.304;2023-08-24T02:53:02;1.50;;;1.38;;
19213;SDS011;9741;51.020;5.304;2023-08-24T02:55:39;2.22;;;1.65;;
19213;SDS011;9741;51.020;5.304;2023-08-24T02:58:13;1.90;;;1.67;;
19213;SDS011;9741;51.020;5.304;2023-08-24T03:00:44;1.70;;;1.45;;
19213;SDS011;9741;51.020;5.304;2023-08-24T03:03:12;1.73;;;1.48;;
19213;SDS011;9741;51.020;5.304;2023-08-24T03:05:43;2.67;;;1.73;;
19213;SDS011;9741;51.020;5.304;2023-08-24T03:08:31;2.45;;;1.17;;
19213;SDS011;9741;51.020;5.304;2023-08-24T03:11:00;1.95;;;1.50;;
19213;SDS011;9741;51.020;5.304;2023-08-24T03:13:36;1.27;;;1.17;;
19213;SDS011;9741;51.020;5.304;2023-08-24T03:16:11;1.17;;;1.02;;
19213;SDS011;9741;51.020;5.304;2023-08-24T03:18:43;3.17;;;1.75;;
19213;SDS011;9741;51.020;5.304;2023-08-24T03:21:20;1.27;;;1.10;;
19213;SDS011;9741;51.020;5.304;2023-08-24T03:23:48;2.05;;;1.83;;
19213;SDS011;9741;51.020;5.304;2023-08-24T03:26:20;2.25;;;1.63;;
19213;SDS011;9741;51.020;5.304;2023-08-24T03:29:02;1.38;;;1.27;;
19213;SDS011;9741;51.020;5.304;2023-08-24T03:31:30;2.28;;;1.92;;
19213;SDS011;9741;51.020;5.304;2023-08-24T03:34:04;2.72;;;1.48;;
19213;SDS011;9741;51.020;5.304;2023-08-24T03:36:38;3.55;;;1.88;;
19213;SDS011;9741;51.020;5.304;2023-08-24T03:39:06;2.65;;;1.98;;
19213;SDS011;9741;51.020;5.304;2023-08-24T03:41:34;2.20;;;1.42;;
19213;SDS011;9741;51.020;5.304;2023-08-24T03:44:20;2.65;;;1.65;;
19213;SDS011;9741;51.020;5.304;2023-08-24T03:46:50;3.35;;;1.58;;
19213;SDS011;9741;51.020;5.304;2023-08-24T03:49:20;2.35;;;1.73;;
19213;SDS011;9741;51.020;5.304;2023-08-24T03:51:52;3.83;;;1.58;;
19213;SDS011;9741;51.020;5.304;2023-08-24T03:54:35;2.95;;;1.48;;
19213;SDS011;9741;51.020;5.304;2023-08-24T03:57:05;5.88;;;1.58;;
19213;SDS011;9741;51.020;5.304;2023-08-24T03:59:40;2.25;;;1.48;;
19213;SDS011;9741;51.020;5.304;2023-08-24T04:02:16;1.90;;;1.33;;
19213;SDS011;9741;51.020;5.304;2023-08-24T04:04:49;3.53;;;1.60;;
19213;SDS011;9741;51.020;5.304;2023-08-24T04:07:20;2.28;;;1.77;;
19213;SDS011;9741;51.020;5.304;2023-08-24T04:09:52;1.38;;;1.15;;
19213;SDS011;9741;51.020;5.304;2023-08-24T04:12:20;1.58;;;1.48;;
19213;SDS011;9741;51.020;5.304;2023-08-24T04:14:54;2.17;;;1.50;;
19213;SDS011;9741;51.020;5.304;2023-08-24T04:17:24;2.63;;;1.58;;
19213;SDS011;9741;51.020;5.304;2023-08-24T04:19:55;4.00;;;1.75;;
19213;SDS011;9741;51.020;5.304;2023-08-24T04:22:24;2.17;;;1.77;;
19213;SDS011;9741;51.020;5.304;2023-08-24T04:24:59;1.20;;;1.10;;
19213;SDS011;9741;51.020;5.304;2023-08-24T04:27:29;2.53;;;1.60;;
19213;SDS011;9741;51.020;5.304;2023-08-24T04:30:16;1.90;;;1.45;;
19213;SDS011;9741;51.020;5.304;2023-08-24T04:32:47;11.55;;;2.45;;
19213;SDS011;9741;51.020;5.304;2023-08-24T04:35:17;2.22;;;1.77;;
19213;SDS011;9741;51.020;5.304;2023-08-24T04:37:48;1.90;;;1.42;;
19213;SDS011;9741;51.020;5.304;2023-08-24T04:40:23;2.47;;;2.00;;
19213;SDS011;9741;51.020;5.304;2023-08-24T04:43:00;1.60;;;1.42;;
19213;SDS011;9741;51.020;5.304;2023-08-24T04:45:31;5.68;;;2.03;;
19213;SDS011;9741;51.020;5.304;2023-08-24T04:48:00;2.25;;;1.58;;
19213;SDS011;9741;51.020;5.304;2023-08-24T04:50:29;1.73;;;1.33;;
19213;SDS011;9741;51.020;5.304;2023-08-24T04:53:01;3.40;;;2.42;;
19213;SDS011;9741;51.020;5.304;2023-08-24T04:55:33;1.58;;;0.70;;
19213;SDS011;9741;51.020;5.304;2023-08-24T04:58:02;1.38;;;1.27;;
19213;SDS011;9741;51.020;5.304;2023-08-24T05:00:40;2.10;;;1.48;;
19213;SDS011;9741;51.020;5.304;2023-08-24T05:03:08;2.83;;;1.33;;
19213;SDS011;9741;51.020;5.304;2023-08-24T05:05:39;1.23;;;1.13;;
19213;SDS011;9741;51.020;5.304;2023-08-24T05:08:13;2.90;;;1.65;;
19213;SDS011;9741;51.020;5.304;2023-08-24T05:10:43;1.27;;;1.13;;
19213;SDS011;9741;51.020;5.304;2023-08-24T05:13:14;1.42;;;1.33;;
19213;SDS011;9741;51.020;5.304;2023-08-24T05:15:47;1.90;;;1.38;;
19213;SDS011;9741;51.020;5.304;2023-08-24T05:18:17;1.80;;;1.58;;
19213;SDS011;9741;51.020;5.304;2023-08-24T05:20:47;3.10;;;1.25;;
19213;SDS011;9741;51.020;5.304;2023-08-24T05:23:28;15.00;;;1.73;;
19213;SDS011;9741;51.020;5.304;2023-08-24T05:26:06;4.90;;;1.95;;
19213;SDS011;9741;51.020;5.304;2023-08-24T05:28:48;4.55;;;2.08;;
19213;SDS011;9741;51.020;5.304;2023-08-24T05:31:28;3.30;;;1.63;;
19213;SDS011;9741;51.020;5.304;2023-08-24T05:34:00;1.83;;;1.45;;
19213;SDS011;9741;51.020;5.304;2023-08-24T05:36:28;3.05;;;1.60;;
19213;SDS011;9741;51.020;5.304;2023-08-24T05:38:58;1.83;;;1.52;;
19213;SDS011;9741;51.020;5.304;2023-08-24T05:41:29;2.10;;;1.77;;
19213;SDS011;9741;51.020;5.304;2023-08-24T05:44:03;5.22;;;1.65;;
19213;SDS011;9741;51.020;5.304;2023-08-24T05:46:39;2.00;;;1.65;;
19213;SDS011;9741;51.020;5.304;2023-08-24T05:49:08;2.50;;;1.80;;
19213;SDS011;9741;51.020;5.304;2023-08-24T05:51:37;2.13;;;1.35;;
19213;SDS011;9741;51.020;5.304;2023-08-24T05:54:07;2.30;;;1.60;;
19213;SDS011;9741;51.020;5.304;2023-08-24T05:56:36;3.28;;;2.25;;
19213;SDS011;9741;51.020;5.304;2023-08-24T05:59:12;4.32;;;2.05;;
19213;SDS011;9741;51.020;5.304;2023-08-24T06:01:45;2.05;;;1.38;;
19213;SDS011;9741;51.020;5.304;2023-08-24T06:04:18;2.17;;;1.45;;
19213;SDS011;9741;51.020;5.304;2023-08-24T06:06:47;1.88;;;1.30;;
19213;SDS011;9741;51.020;5.304;2023-08-24T06:09:18;3.03;;;1.73;;
19213;SDS011;9741;51.020;5.304;2023-08-24T06:11:47;1.38;;;1.27;;
19213;SDS011;9741;51.020;5.304;2023-08-24T06:14:18;3.85;;;1.90;;
19213;SDS011;9741;51.020;5.304;2023-08-24T06:16:50;1.98;;;1.52;;
19213;SDS011;9741;51.020;5.304;2023-08-24T06:19:24;1.40;;;1.23;;
19213;SDS011;9741;51.020;5.304;2023-08-24T06:21:52;3.83;;;2.25;;
19213;SDS011;9741;51.020;5.304;2023-08-24T06:24:28;1.85;;;1.52;;
19213;SDS011;9741;51.020;5.304;2023-08-24T06:26:56;1.25;;;1.17;;
19213;SDS011;9741;51.020;5.304;2023-08-24T06:29:30;5.35;;;1.83;;
19213;SDS011;9741;51.020;5.304;2023-08-24T06:32:02;3.92;;;1.77;;
19213;SDS011;9741;51.020;5.304;2023-08-24T06:34:33;1.80;;;1.67;;
19213;SDS011;9741;51.020;5.304;2023-08-24T06:37:09;1.77;;;1.63;;
19213;SDS011;9741;51.020;5.304;2023-08-24T06:39:41;2.97;;;1.67;;
19213;SDS011;9741;51.020;5.304;2023-08-24T06:42:17;2.20;;;1.52;;
19213;SDS011;9741;51.020;5.304;2023-08-24T06:44:47;1.55;;;1.45;;
19213;SDS011;9741;51.020;5.304;2023-08-24T06:47:34;1.20;;;0.75;;
19213;SDS011;9741;51.020;5.304;2023-08-24T06:50:03;1.40;;;1.25;;
19213;SDS011;9741;51.020;5.304;2023-08-24T06:52:38;2.78;;;1.52;;
19213;SDS011;9741;51.020;5.304;2023-08-24T06:55:06;2.88;;;1.65;;
19213;SDS011;9741;51.020;5.304;2023-08-24T06:57:35;2.92;;;2.03;;
19213;SDS011;9741;51.020;5.304;2023-08-24T07:00:03;2.05;;;1.35;;
19213;SDS011;9741;51.020;5.304;2023-08-24T07:02:35;1.42;;;1.30;;
19213;SDS011;9741;51.020;5.304;2023-08-24T07:05:02;2.75;;;1.33;;
19213;SDS011;9741;51.020;5.304;2023-08-24T07:07:33;4.43;;;1.67;;
19213;SDS011;9741;51.020;5.304;2023-08-24T07:10:00;1.70;;;1.00;;
19213;SDS011;9741;51.020;5.304;2023-08-24T07:12:29;2.10;;;1.27;;
19213;SDS011;9741;51.020;5.304;2023-08-24T07:14:57;3.15;;;1.30;;
19213;SDS011;9741;51.020;5.304;2023-08-24T07:17:25;1.10;;;0.90;;
19213;SDS011;9741;51.020;5.304;2023-08-24T07:19:54;1.75;;;1.15;;
19213;SDS011;9741;51.020;5.304;2023-08-24T07:22:23;2.05;;;1.48;;
19213;SDS011;9741;51.020;5.304;2023-08-24T07:24:56;2.35;;;1.65;;
19213;SDS011;9741;51.020;5.304;2023-08-24T07:27:31;9.65;;;1.33;;
19213;SDS011;9741;51.020;5.304;2023-08-24T07:30:10;1.02;;;0.93;;
19213;SDS011;9741;51.020;5.304;2023-08-24T07:32:44;2.65;;;1.60;;
19213;SDS011;9741;51.020;5.304;2023-08-24T07:35:20;1.70;;;1.52;;
19213;SDS011;9741;51.020;5.304;2023-08-24T07:37:53;1.13;;;0.93;;
19213;SDS011;9741;51.020;5.304;2023-08-24T07:40:27;2.05;;;1.25;;
19213;SDS011;9741;51.020;5.304;2023-08-24T07:42:57;0.68;;;0.65;;
19213;SDS011;9741;51.020;5.304;2023-08-24T07:45:28;1.23;;;1.10;;
19213;SDS011;9741;51.020;5.304;2023-08-24T07:48:00;1.23;;;1.13;;
19213;SDS011;9741;51.020;5.304;2023-08-24T07:50:35;1.38;;;1.10;;
19213;SDS011;9741;51.020;5.304;2023-08-24T07:53:07;1.00;;;0.93;;
19213;SDS011;9741;51.020;5.304;2023-08-24T07:55:36;2.85;;;1.30;;
19213;SDS011;9741;51.020;5.304;2023-08-24T07:58:08;2.25;;;1.15;;
19213;SDS011;9741;51.020;5.304;2023-08-24T08:00:39;2.38;;;1.65;;
19213;SDS011;9741;51.020;5.304;2023-08-24T08:03:09;1.30;;;0.93;;
19213;SDS011;9741;51.020;5.304;2023-08-24T08:05:59;1.20;;;0.98;;
19213;SDS011;9741;51.020;5.304;2023-08-24T08:08:27;1.60;;;1.15;;
19213;SDS011;9741;51.020;5.304;2023-08-24T08:11:04;1.02;;;0.80;;
19213;SDS011;9741;51.020;5.304;2023-08-24T08:13:34;1.10;;;0.90;;
19213;SDS011;9741;51.020;5.304;2023-08-24T08:16:05;3.50;;;1.27;;
19213;SDS011;9741;51.020;5.304;2023-08-24T08:18:41;2.00;;;1.05;;
19213;SDS011;9741;51.020;5.304;2023-08-24T08:21:21;1.35;;;0.82;;
19213;SDS011;9741;51.020;5.304;2023-08-24T08:23:52;0.93;;;0.88;;
19213;SDS011;9741;51.020;5.304;2023-08-24T08:26:22;1.65;;;1.05;;
19213;SDS011;9741;51.020;5.304;2023-08-24T08:28:53;1.42;;;1.30;;
19213;SDS011;9741;51.020;5.304;2023-08-24T08:31:22;2.85;;;1.40;;
19213;SDS011;9741;51.020;5.304;2023-08-24T08:33:51;1.75;;;1.00;;
19213;SDS011;9741;51.020;5.304;2023-08-24T08:36:25;1.20;;;0.88;;
19213;SDS011;9741;51.020;5.304;2023-08-24T08:38:53;0.75;;;0.50;;
19213;SDS011;9741;51.020;5.304;2023-08-24T08:41:23;0.77;;;0.65;;
19213;SDS011;9741;51.020;5.304;2023-08-24T08:44:05;2.55;;;1.13;;
19213;SDS011;9741;51.020;5.304;2023-08-24T08:46:36;1.20;;;1.00;;
19213;SDS011;9741;51.020;5.304;2023-08-24T08:49:05;0.95;;;0.95;;
19213;SDS011;9741;51.020;5.304;2023-08-24T08:51:40;1.20;;;1.10;;
19213;SDS011;9741;51.020;5.304;2023-08-24T08:54:11;1.15;;;0.82;;
19213;SDS011;9741;51.020;5.304;2023-08-24T08:56:49;4.57;;;1.00;;
19213;SDS011;9741;51.020;5.304;2023-08-24T08:59:33;1.23;;;0.73;;
19213;SDS011;9741;51.020;5.304;2023-08-24T09:02:02;1.02;;;0.90;;
19213;SDS011;9741;51.020;5.304;2023-08-24T09:04:31;4.32;;;1.00;;
19213;SDS011;9741;51.020;5.304;2023-08-24T09:07:03;1.00;;;0.95;;
19213;SDS011;9741;51.020;5.304;2023-08-24T09:09:37;0.93;;;0.77;;
19213;SDS011;9741;51.020;5.304;2023-08-24T09:12:09;1.95;;;0.70;;
19213;SDS011;9741;51.020;5.304;2023-08-24T09:14:45;1.90;;;1.17;;
19213;SDS011;9741;51.020;5.304;2023-08-24T09:17:21;0.75;;;0.75;;
19213;SDS011;9741;51.020;5.304;2023-08-24T09:19:49;1.48;;;0.90;;
19213;SDS011;9741;51.020;5.304;2023-08-24T09:22:34;1.70;;;0.88;;
19213;SDS011;9741;51.020;5.304;2023-08-24T09:25:11;1.48;;;1.00;;
19213;SDS011;9741;51.020;5.304;2023-08-24T09:27:41;1.13;;;1.00;;
19213;SDS011;9741;51.020;5.304;2023-08-24T09:30:11;3.47;;;1.20;;
19213;SDS011;9741;51.020;5.304;2023-08-24T09:32:42;1.02;;;0.90;;
19213;SDS011;9741;51.020;5.304;2023-08-24T09:35:11;3.65;;;1.48;;
19213;SDS011;9741;51.020;5.304;2023-08-24T09:37:44;0.70;;;0.70;;
19213;SDS011;9741;51.020;5.304;2023-08-24T09:40:14;2.22;;;1.45;;
19213;SDS011;9741;51.020;5.304;2023-08-24T09:42:44;1.70;;;1.05;;
19213;SDS011;9741;51.020;5.304;2023-08-24T09:45:13;1.33;;;0.88;;
19213;SDS011;9741;51.020;5.304;2023-08-24T09:47:49;2.30;;;1.10;;
19213;SDS011;9741;51.020;5.304;2023-08-24T09:50:18;1.52;;;0.95;;
19213;SDS011;9741;51.020;5.304;2023-08-24T09:52:52;1.50;;;1.10;;
19213;SDS011;9741;51.020;5.304;2023-08-24T09:55:29;1.15;;;0.88;;
19213;SDS011;9741;51.020;5.304;2023-08-24T09:58:16;1.50;;;1.23;;
19213;SDS011;9741;51.020;5.304;2023-08-24T10:00:49;1.23;;;0.98;;
19213;SDS011;9741;51.020;5.304;2023-08-24T10:03:19;2.97;;;1.33;;
19213;SDS011;9741;51.020;5.304;2023-08-24T10:06:01;1.92;;;0.93;;
19213;SDS011;9741;51.020;5.304;2023-08-24T10:08:37;1.67;;;1.25;;
19213;SDS011;9741;51.020;5.304;2023-08-24T10:11:17;0.88;;;0.88;;
19213;SDS011;9741;51.020;5.304;2023-08-24T10:13:50;0.57;;;0.57;;
19213;SDS011;9741;51.020;5.304;2023-08-24T10:16:27;1.17;;;0.95;;
19213;SDS011;9741;51.020;5.304;2023-08-24T10:18:58;1.75;;;1.10;;
19213;SDS011;9741;51.020;5.304;2023-08-24T10:21:32;0.65;;;0.65;;
19213;SDS011;9741;51.020;5.304;2023-08-24T10:24:06;2.50;;;1.48;;
19213;SDS011;9741;51.020;5.304;2023-08-24T10:26:40;1.55;;;1.05;;
19213;SDS011;9741;51.020;5.304;2023-08-24T10:29:16;1.58;;;0.98;;
19213;SDS011;9741;51.020;5.304;2023-08-24T10:31:46;1.67;;;1.05;;
19213;SDS011;9741;51.020;5.304;2023-08-24T10:34:25;1.20;;;0.85;;
19213;SDS011;9741;51.020;5.304;2023-08-24T10:36:54;5.65;;;1.33;;
19213;SDS011;9741;51.020;5.304;2023-08-24T10:39:32;0.80;;;0.80;;
19213;SDS011;9741;51.020;5.304;2023-08-24T10:42:08;10.30;;;0.80;;
19213;SDS011;9741;51.020;5.304;2023-08-24T10:44:44;2.22;;;1.63;;
19213;SDS011;9741;51.020;5.304;2023-08-24T10:47:18;0.75;;;0.75;;
19213;SDS011;9741;51.020;5.304;2023-08-24T10:49:59;4.63;;;1.42;;
19213;SDS011;9741;51.020;5.304;2023-08-24T10:52:31;1.15;;;0.98;;
19213;SDS011;9741;51.020;5.304;2023-08-24T10:55:04;4.93;;;1.42;;
19213;SDS011;9741;51.020;5.304;2023-08-24T10:57:55;0.93;;;0.70;;
19213;SDS011;9741;51.020;5.304;2023-08-24T11:00:27;2.25;;;1.10;;
19213;SDS011;9741;51.020;5.304;2023-08-24T11:02:57;1.67;;;1.42;;
19213;SDS011;9741;51.020;5.304;2023-08-24T11:05:28;1.85;;;1.33;;
19213;SDS011;9741;51.020;5.304;2023-08-24T11:08:01;2.15;;;1.55;;
19213;SDS011;9741;51.020;5.304;2023-08-24T11:13:22;8.05;;;1.30;;
19213;SDS011;9741;51.020;5.304;2023-08-24T11:15:50;1.05;;;0.95;;
19213;SDS011;9741;51.020;5.304;2023-08-24T11:18:23;1.92;;;1.35;;
19213;SDS011;9741;51.020;5.304;2023-08-24T11:20:59;1.73;;;1.20;;
19213;SDS011;9741;51.020;5.304;2023-08-24T11:23:32;0.80;;;0.80;;
19213;SDS011;9741;51.020;5.304;2023-08-24T11:26:05;1.77;;;1.15;;
19213;SDS011;9741;51.020;5.304;2023-08-24T11:28:38;5.72;;;1.90;;
19213;SDS011;9741;51.020;5.304;2023-08-24T11:31:14;1.27;;;1.17;;
19213;SDS011;9741;51.020;5.304;2023-08-24T11:33:42;2.38;;;1.05;;
19213;SDS011;9741;51.020;5.304;2023-08-24T11:36:10;1.50;;;0.90;;
19213;SDS011;9741;51.020;5.304;2023-08-24T11:38:39;2.90;;;0.98;;
19213;SDS011;9741;51.020;5.304;2023-08-24T11:41:18;3.50;;;1.20;;
19213;SDS011;9741;51.020;5.304;2023-08-24T11:43:55;1.38;;;1.23;;
19213;SDS011;9741;51.020;5.304;2023-08-24T11:46:30;1.48;;;1.35;;
19213;SDS011;9741;51.020;5.304;2023-08-24T11:48:58;1.33;;;1.23;;
19213;SDS011;9741;51.020;5.304;2023-08-24T11:51:28;1.00;;;0.90;;
19213;SDS011;9741;51.020;5.304;2023-08-24T11:54:02;1.83;;;1.30;;
19213;SDS011;9741;51.020;5.304;2023-08-24T11:59:28;1.77;;;1.05;;
19213;SDS011;9741;51.020;5.304;2023-08-24T12:01:59;2.55;;;1.13;;
19213;SDS011;9741;51.020;5.304;2023-08-24T12:04:40;2.15;;;1.35;;
19213;SDS011;9741;51.020;5.304;2023-08-24T12:07:12;2.15;;;1.55;;
19213;SDS011;9741;51.020;5.304;2023-08-24T12:09:44;1.00;;;0.90;;
19213;SDS011;9741;51.020;5.304;2023-08-24T12:12:22;2.47;;;1.38;;
19213;SDS011;9741;51.020;5.304;2023-08-24T12:14:57;1.90;;;1.27;;
19213;SDS011;9741;51.020;5.304;2023-08-24T12:17:27;0.80;;;0.80;;
19213;SDS011;9741;51.020;5.304;2023-08-24T12:19:57;1.27;;;1.10;;
19213;SDS011;9741;51.020;5.304;2023-08-24T12:22:32;2.72;;;1.25;;
19213;SDS011;9741;51.020;5.304;2023-08-24T12:25:01;2.28;;;1.80;;
19213;SDS011;9741;51.020;5.304;2023-08-24T12:27:33;1.30;;;0.98;;
19213;SDS011;9741;51.020;5.304;2023-08-24T12:30:05;1.63;;;1.00;;
19213;SDS011;9741;51.020;5.304;2023-08-24T12:32:45;2.00;;;1.35;;
19213;SDS011;9741;51.020;5.304;2023-08-24T12:35:25;3.58;;;1.27;;
19213;SDS011;9741;51.020;5.304;2023-08-24T12:37:53;1.20;;;1.05;;
19213;SDS011;9741;51.020;5.304;2023-08-24T12:40:29;1.42;;;0.82;;
19213;SDS011;9741;51.020;5.304;2023-08-24T12:43:04;0.63;;;0.57;;
19213;SDS011;9741;51.020;5.304;2023-08-24T12:45:37;5.45;;;1.88;;
19213;SDS011;9741;51.020;5.304;2023-08-24T12:48:07;1.50;;;1.40;;
19213;SDS011;9741;51.020;5.304;2023-08-24T12:50:38;1.23;;;1.10;;
19213;SDS011;9741;51.020;5.304;2023-08-24T12:53:10;1.50;;;0.98;;
19213;SDS011;9741;51.020;5.304;2023-08-24T12:55:39;2.08;;;1.60;;
19213;SDS011;9741;51.020;5.304;2023-08-24T12:58:13;4.97;;;1.40;;
19213;SDS011;9741;51.020;5.304;2023-08-24T13:00:45;1.15;;;1.05;;
19213;SDS011;9741;51.020;5.304;2023-08-24T13:03:24;3.00;;;1.63;;
19213;SDS011;9741;51.020;5.304;2023-08-24T13:05:55;0.70;;;0.70;;
19213;SDS011;9741;51.020;5.304;2023-08-24T13:08:31;1.85;;;1.23;;
19213;SDS011;9741;51.020;5.304;2023-08-24T13:11:01;1.95;;;1.13;;
19213;SDS011;9741;51.020;5.304;2023-08-24T13:13:36;1.95;;;1.05;;
19213;SDS011;9741;51.020;5.304;2023-08-24T13:16:04;3.08;;;1.35;;
19213;SDS011;9741;51.020;5.304;2023-08-24T13:18:35;6.30;;;2.28;;
19213;SDS011;9741;51.020;5.304;2023-08-24T13:21:05;2.42;;;1.23;;
19213;SDS011;9741;51.020;5.304;2023-08-24T13:23:33;1.40;;;1.20;;
19213;SDS011;9741;51.020;5.304;2023-08-24T13:26:17;3.45;;;1.23;;
19213;SDS011;9741;51.020;5.304;2023-08-24T13:28:48;10.10;;;1.60;;
19213;SDS011;9741;51.020;5.304;2023-08-24T13:31:20;1.38;;;1.23;;
19213;SDS011;9741;51.020;5.304;2023-08-24T13:33:50;2.05;;;1.02;;
19213;SDS011;9741;51.020;5.304;2023-08-24T13:36:19;1.60;;;1.23;;
19213;SDS011;9741;51.020;5.304;2023-08-24T13:38:49;0.82;;;0.82;;
19213;SDS011;9741;51.020;5.304;2023-08-24T13:41:19;1.10;;;1.05;;
19213;SDS011;9741;51.020;5.304;2023-08-24T13:43:53;2.22;;;1.23;;
19213;SDS011;9741;51.020;5.304;2023-08-24T13:46:25;6.72;;;0.90;;
19213;SDS011;9741;51.020;5.304;2023-08-24T13:49:02;0.73;;;0.73;;
19213;SDS011;9741;51.020;5.304;2023-08-24T13:51:38;0.90;;;0.85;;
19213;SDS011;9741;51.020;5.304;2023-08-24T13:54:12;2.22;;;1.60;;
19213;SDS011;9741;51.020;5.304;2023-08-24T13:56:41;2.60;;;1.17;;
19213;SDS011;9741;51.020;5.304;2023-08-24T13:59:15;1.50;;;0.57;;
19213;SDS011;9741;51.020;5.304;2023-08-24T14:01:51;2.80;;;0.80;;
19213;SDS011;9741;51.020;5.304;2023-08-24T14:04:23;1.92;;;1.10;;
19213;SDS011;9741;51.020;5.304;2023-08-24T14:06:53;0.95;;;0.82;;
19213;SDS011;9741;51.020;5.304;2023-08-24T14:09:22;0.73;;;0.50;;
19213;SDS011;9741;51.020;5.304;2023-08-24T14:11:51;0.40;;;0.40;;
19213;SDS011;9741;51.020;5.304;2023-08-24T14:14:27;1.52;;;0.60;;
19213;SDS011;9741;51.020;5.304;2023-08-24T14:17:00;4.30;;;0.75;;
19213;SDS011;9741;51.020;5.304;2023-08-24T14:19:42;9.05;;;0.57;;
19213;SDS011;9741;51.020;5.304;2023-08-24T14:22:13;0.43;;;0.40;;
19213;SDS011;9741;51.020;5.304;2023-08-24T14:24:44;0.63;;;0.47;;
19213;SDS011;9741;51.020;5.304;2023-08-24T14:27:20;0.30;;;0.30;;
19213;SDS011;9741;51.020;5.304;2023-08-24T14:29:55;0.30;;;0.30;;
19213;SDS011;9741;51.020;5.304;2023-08-24T14:32:24;1.65;;;0.80;;
19213;SDS011;9741;51.020;5.304;2023-08-24T14:34:55;1.15;;;0.60;;
19213;SDS011;9741;51.020;5.304;2023-08-24T14:37:25;0.30;;;0.30;;
19213;SDS011;9741;51.020;5.304;2023-08-24T14:40:05;0.47;;;0.47;;
19213;SDS011;9741;51.020;5.304;2023-08-24T14:42:42;0.35;;;0.35;;
19213;SDS011;9741;51.020;5.304;2023-08-24T14:45:17;0.60;;;0.60;;
19213;SDS011;9741;51.020;5.304;2023-08-24T14:47:46;0.43;;;0.43;;
19213;SDS011;9741;51.020;5.304;2023-08-24T14:50:14;2.10;;;0.90;;
19213;SDS011;9741;51.020;5.304;2023-08-24T14:52:46;0.88;;;0.88;;
19213;SDS011;9741;51.020;5.304;2023-08-24T14:55:21;0.25;;;0.25;;
19213;SDS011;9741;51.020;5.304;2023-08-24T14:57:53;0.57;;;0.55;;
19213;SDS011;9741;51.020;5.304;2023-08-24T15:00:28;0.60;;;0.60;;
19213;SDS011;9741;51.020;5.304;2023-08-24T15:03:02;0.30;;;0.30;;
19213;SDS011;9741;51.020;5.304;2023-08-24T15:05:38;0.30;;;0.30;;
19213;SDS011;9741;51.020;5.304;2023-08-24T15:08:11;0.75;;;0.75;;
19213;SDS011;9741;51.020;5.304;2023-08-24T15:10:42;0.30;;;0.30;;
19213;SDS011;9741;51.020;5.304;2023-08-24T15:13:19;0.32;;;0.32;;
19213;SDS011;9741;51.020;5.304;2023-08-24T15:15:52;0.80;;;0.30;;
19213;SDS011;9741;51.020;5.304;2023-08-24T15:18:24;0.40;;;0.40;;
19213;SDS011;9741;51.020;5.304;2023-08-24T15:20:52;0.32;;;0.32;;
19213;SDS011;9741;51.020;5.304;2023-08-24T15:23:24;1.45;;;0.40;;
19213;SDS011;9741;51.020;5.304;2023-08-24T15:25:56;0.98;;;0.43;;
19213;SDS011;9741;51.020;5.304;2023-08-24T15:28:36;3.50;;;0.52;;
19213;SDS011;9741;51.020;5.304;2023-08-24T15:31:09;1.90;;;0.50;;
19213;SDS011;9741;51.020;5.304;2023-08-24T15:33:46;0.98;;;0.60;;
19213;SDS011;9741;51.020;5.304;2023-08-24T15:36:15;0.45;;;0.40;;
19213;SDS011;9741;51.020;5.304;2023-08-24T15:38:45;0.45;;;0.45;;
19213;SDS011;9741;51.020;5.304;2023-08-24T15:41:23;0.43;;;0.43;;
19213;SDS011;9741;51.020;5.304;2023-08-24T15:43:59;0.20;;;0.20;;